Terminal Aerodrome Forecast
Issued by NWS

Home | Current Version | Previous Version | Text Only | Print | Product List | Glossary On
Versions: 1 2 3 4 5 6 7 8 9 10 11 12 13 14 15 16 17 18 19 20 21 22 23 24
000
FTUS46 KPDT 221720
TAFYKM
TAF
KYKM 221720Z 2218/2318 23008KT P6SM -SHRA SCT080 BKN100
     FM222000 21011KT P6SM -RA BKN050 OVC100
     FM230000 26008KT P6SM VCSH SCT050 BKN100
     FM230200 29006KT P6SM SCT200=

USA.gov is the U.S. government's official web portal to all federal, state and local government web resources and services.